Time;durP1;ratioP1;P1;durP2;ratioP2;P2;SDS_P1;SDS_P2;PMS_P1;PMS_P2;Temp;Humidity;BMP_temperature;BMP_pressure;BME280_temperature;BME280_humidity;BME280_pressure;Samples;Min_cycle;Max_cycle;Signal;HPM_P1;HPM_P2
2021/10/23 00:03:27;;;;;;;0.00;0.00;;;;;;;5.08;99.66;101920.94;10363407;28;20265;-71
2021/10/23 00:08:27;;;;;;;0.00;0.00;;;;;;;5.08;100.00;101915.66;10366697;28;20025;-71
2021/10/23 00:13:27;;;;;;;0.00;0.00;;;;;;;5.11;99.46;101916.28;10370064;28;20030;-71
2021/10/23 00:18:28;;;;;;;0.00;0.00;;;;;;;5.14;99.31;101929.31;10374404;28;20064;-71
2021/10/23 00:23:28;;;;;;;0.00;0.00;;;;;;;5.24;99.55;101939.31;10371959;28;20030;-71
2021/10/23 00:28:29;;;;;;;0.00;0.00;;;;;;;5.43;99.88;101945.94;10374306;28;20565;-71
2021/10/23 00:33:29;;;;;;;0.00;0.00;;;;;;;5.59;99.21;101950.25;10370728;28;20108;-71
2021/10/23 00:38:29;;;;;;;0.00;0.00;;;;;;;5.69;98.70;101961.91;10372467;28;20477;-71
2021/10/23 00:43:30;;;;;;;0.00;0.00;;;;;;;5.74;98.14;101959.84;10373806;28;20257;-71
2021/10/23 00:48:30;;;;;;;0.00;0.00;;;;;;;5.64;98.40;101959.59;10371307;28;20018;-71
2021/10/23 00:53:31;;;;;;;0.00;0.00;;;;;;;5.53;98.09;101958.59;10371907;28;20268;-71
2021/10/23 00:58:32;;;;;;;0.00;0.00;;;;;;;5.44;98.24;101952.09;10370582;28;20744;-72
2021/10/23 01:03:32;;;;;;;0.00;0.00;;;;;;;5.47;99.29;101988.91;10373087;28;20029;-71
2021/10/23 01:08:32;;;;;;;0.00;0.00;;;;;;;5.60;100.00;101981.03;10369250;28;20026;-72
2021/10/23 01:13:33;;;;;;;0.00;0.00;;;;;;;5.68;99.75;101973.44;10357625;28;20018;-72
2021/10/23 01:18:33;;;;;;;0.00;0.00;;;;;;;5.61;99.82;101988.00;10372157;28;20476;-72
2021/10/23 01:23:33;;;;;;;0.00;0.00;;;;;;;5.51;99.35;101997.47;10372515;28;20107;-72
2021/10/23 01:28:34;;;;;;;0.00;0.00;;;;;;;5.47;99.41;102017.09;10372240;28;20034;-72
2021/10/23 01:33:34;;;;;;;0.00;0.00;;;;;;;5.53;100.00;102035.22;10371257;28;20026;-71
2021/10/23 01:38:34;;;;;;;0.00;0.00;;;;;;;5.60;98.87;102025.97;10369456;28;20022;-72
2021/10/23 01:43:35;;;;;;;0.00;0.00;;;;;;;5.60;98.43;102024.16;10370302;28;20021;-71
2021/10/23 01:48:37;;;;;;;0.00;0.00;;;;;;;5.53;97.81;102037.88;10371295;28;20029;-71
2021/10/23 01:53:37;;;;;;;0.00;0.00;;;;;;;5.49;98.27;102045.13;10371790;28;20018;-71
2021/10/23 01:58:37;;;;;;;0.10;0.10;;;;;;;5.61;97.19;102049.66;10371112;28;20018;-71
2021/10/23 02:03:38;;;;;;;0.00;0.00;;;;;;;5.86;96.50;102046.28;10370318;28;20022;-71
2021/10/23 02:08:38;;;;;;;0.00;0.00;;;;;;;6.04;94.28;102043.44;10370670;28;20025;-72
2021/10/23 02:13:39;;;;;;;0.00;0.00;;;;;;;6.23;93.05;102061.59;10370652;28;20030;-71
2021/10/23 02:18:39;;;;;;;0.00;0.00;;;;;;;6.34;93.80;102065.25;10369557;28;20617;-72
2021/10/23 02:23:40;;;;;;;0.00;0.00;;;;;;;6.35;92.85;102063.44;10369571;28;20022;-71
2021/10/23 02:28:41;;;;;;;0.08;0.08;;;;;;;6.35;92.99;102088.09;10370159;28;20216;-72
2021/10/23 02:33:41;;;;;;;0.00;0.00;;;;;;;6.32;92.51;102095.41;10369863;28;20057;-70
2021/10/23 02:38:42;;;;;;;0.00;0.00;;;;;;;6.24;93.02;102092.41;10368911;28;20020;-71
2021/10/23 02:43:42;;;;;;;0.00;0.00;;;;;;;6.11;93.33;102117.00;10370380;28;20018;-71
2021/10/23 02:48:42;;;;;;;0.00;0.00;;;;;;;6.09;94.68;102112.75;10369580;28;20316;-71
2021/10/23 02:53:43;;;;;;;0.00;0.00;;;;;;;6.09;96.15;102113.59;10370002;28;20026;-71
2021/10/23 02:58:43;;;;;;;0.00;0.00;;;;;;;6.09;96.56;102108.31;10368979;28;20022;-72
2021/10/23 03:03:43;;;;;;;0.00;0.00;;;;;;;6.00;96.23;102097.47;10369257;28;20045;-71
2021/10/23 03:08:45;;;;;;;0.00;0.00;;;;;;;5.85;96.41;102092.19;10369702;28;20021;-71
2021/10/23 03:13:45;;;;;;;0.00;0.00;;;;;;;5.76;96.61;102082.22;10368553;28;20267;-72
2021/10/23 03:18:46;;;;;;;0.00;0.00;;;;;;;5.65;95.97;102082.03;10368133;28;20020;-71
2021/10/23 03:23:46;;;;;;;0.00;0.00;;;;;;;5.59;96.53;102098.28;10367696;28;20022;-71
2021/10/23 03:28:47;;;;;;;0.00;0.00;;;;;;;5.81;95.48;102108.34;10368714;28;20104;-71
2021/10/23 03:33:47;;;;;;;0.00;0.00;;;;;;;6.02;95.34;102104.38;10366741;28;20022;-70
2021/10/23 03:38:47;;;;;;;0.00;0.00;;;;;;;6.09;95.61;102120.69;10366686;28;20018;-71
2021/10/23 03:43:48;;;;;;;0.00;0.00;;;;;;;6.09;95.37;102116.25;10367921;28;20496;-70
2021/10/23 03:48:48;;;;;;;0.00;0.00;;;;;;;6.08;95.94;102132.25;10373715;28;20030;-71
2021/10/23 03:53:48;;;;;;;0.00;0.00;;;;;;;5.93;96.12;102133.16;10376920;28;20515;-71
2021/10/23 03:58:49;;;;;;;0.00;0.00;;;;;;;5.76;96.36;102132.44;10373174;28;20020;-71
2021/10/23 04:03:49;;;;;;;0.00;0.00;;;;;;;5.70;96.64;102146.00;10376433;28;20026;-71
2021/10/23 04:08:50;;;;;;;0.00;0.00;;;;;;;5.73;97.06;102145.84;10375891;28;20033;-71
2021/10/23 04:13:50;;;;;;;0.00;0.00;;;;;;;5.75;97.33;102151.03;10376033;28;20428;-71
2021/10/23 04:18:50;;;;;;;0.00;0.00;;;;;;;5.74;97.67;102157.28;10378049;28;20440;-71
2021/10/23 04:23:51;;;;;;;0.00;0.00;;;;;;;5.80;97.27;102184.19;10376392;28;20030;-71
2021/10/23 04:28:51;;;;;;;0.00;0.00;;;;;;;5.82;97.55;102197.31;10375203;28;20022;-72
2021/10/23 04:33:51;;;;;;;0.00;0.00;;;;;;;5.84;97.44;102198.03;10370717;28;20033;-71
2021/10/23 04:38:52;;;;;;;0.00;0.00;;;;;;;5.92;98.50;102213.44;10372889;28;20024;-73
2021/10/23 04:43:52;;;;;;;0.00;0.00;;;;;;;5.94;98.64;102208.97;10374492;28;20022;-74
2021/10/23 04:48:52;;;;;;;0.00;0.00;;;;;;;5.87;98.83;102208.44;10374894;28;20030;-73
2021/10/23 04:53:53;;;;;;;0.00;0.00;;;;;;;5.77;98.50;102202.88;10375072;28;20022;-72
2021/10/23 04:58:53;;;;;;;0.00;0.00;;;;;;;5.61;98.46;102197.69;10374006;28;20384;-72
2021/10/23 05:03:53;;;;;;;0.00;0.00;;;;;;;5.48;99.22;102203.81;10374693;28;20710;-72
2021/10/23 05:08:54;;;;;;;0.00;0.00;;;;;;;5.36;99.76;102216.81;10374441;28;20392;-72
2021/10/23 05:13:54;;;;;;;0.00;0.00;;;;;;;5.38;100.00;102230.78;10374572;28;20040;-72
2021/10/23 05:18:54;;;;;;;0.00;0.00;;;;;;;5.45;100.00;102226.81;10373006;28;20376;-72
2021/10/23 05:23:57;;;;;;;0.00;0.00;;;;;;;5.43;100.00;102236.63;10373214;28;20295;-72
2021/10/23 05:28:57;;;;;;;0.00;0.00;;;;;;;5.38;100.00;102241.34;10373271;28;20339;-72
2021/10/23 05:33:57;;;;;;;0.00;0.00;;;;;;;5.29;100.00;102247.16;10371488;28;20026;-71
2021/10/23 05:38:58;;;;;;;0.00;0.00;;;;;;;5.26;100.00;102244.69;10371913;28;20075;-72
2021/10/23 05:43:58;;;;;;;0.00;0.00;;;;;;;5.34;100.00;102247.75;10372063;28;20022;-72
2021/10/23 05:48:59;;;;;;;0.00;0.00;;;;;;;5.41;100.00;102275.53;10372363;28;20048;-71
2021/10/23 05:53:59;;;;;;;0.00;0.00;;;;;;;5.51;100.00;102272.34;10370878;28;20028;-72
2021/10/23 05:59:10;;;;;;;0.00;0.00;;;;;;;5.58;100.00;102276.28;10372004;28;20017;-72
2021/10/23 06:04:11;;;;;;;0.00;0.00;;;;;;;5.64;100.00;102268.88;10372041;28;20105;-71
2021/10/23 06:09:11;;;;;;;0.00;0.00;;;;;;;5.67;100.00;102287.19;10362365;28;20544;-71
2021/10/23 06:14:11;;;;;;;0.00;0.00;;;;;;;5.69;100.00;102292.38;10371428;28;20017;-71
2021/10/23 06:19:12;;;;;;;0.00;0.00;;;;;;;5.74;100.00;102308.81;10366028;28;20101;-71
2021/10/23 06:24:12;;;;;;;0.03;0.03;;;;;;;5.83;100.00;102318.00;10371018;28;20100;-71
2021/10/23 06:29:12;;;;;;;0.00;0.00;;;;;;;5.89;100.00;102315.81;10371001;28;20029;-72
2021/10/23 06:34:12;;;;;;;0.00;0.00;;;;;;;5.99;100.00;102333.81;10368025;28;20029;-71
2021/10/23 06:39:13;;;;;;;0.00;0.00;;;;;;;5.98;100.00;102340.91;10370847;28;20097;-70
2021/10/23 06:44:13;;;;;;;0.00;0.00;;;;;;;5.95;100.00;102343.72;10370016;28;20281;-71
2021/10/23 06:49:14;;;;;;;0.00;0.00;;;;;;;6.00;99.62;102364.63;10369348;28;20057;-71
2021/10/23 06:54:14;;;;;;;0.00;0.00;;;;;;;6.21;99.61;102365.13;10370242;28;20272;-71
2021/10/23 06:59:14;;;;;;;0.00;0.00;;;;;;;6.32;97.97;102371.47;10369649;28;20021;-71
2021/10/23 07:04:15;;;;;;;0.00;0.00;;;;;;;6.50;97.81;102381.88;10361425;28;20037;-71
2021/10/23 07:09:17;;;;;;;0.00;0.00;;;;;;;6.94;96.92;102396.78;10369762;28;20288;-71
2021/10/23 07:14:18;;;;;;;0.00;0.00;;;;;;;7.42;95.34;102398.09;10369030;28;20030;-70
2021/10/23 07:19:18;;;;;;;0.00;0.00;;;;;;;7.61;94.56;102410.97;10364892;28;20120;-72
2021/10/23 07:24:19;;;;;;;0.07;0.07;;;;;;;7.63;93.55;102418.84;10369773;28;20068;-71
2021/10/23 07:29:20;;;;;;;0.00;0.00;;;;;;;7.82;92.97;102429.06;10376023;22;20312;-73
2021/10/23 07:34:20;;;;;;;0.08;0.08;;;;;;;8.93;90.14;102433.84;10359223;28;20034;-73
2021/10/23 07:39:20;;;;;;;0.10;0.10;;;;;;;9.79;85.43;102438.19;10326561;28;20174;-73
2021/10/23 07:44:21;;;;;;;0.08;0.08;;;;;;;9.33;86.80;102460.19;10326898;28;20474;-73
2021/10/23 07:49:21;;;;;;;0.10;0.10;;;;;;;8.91;88.46;102478.28;10345762;28;20370;-72
2021/10/23 07:54:21;;;;;;;0.10;0.10;;;;;;;8.87;89.05;102475.91;10365242;28;20256;-72
2021/10/23 07:59:26;;;;;;;0.10;0.10;;;;;;;9.34;86.93;102477.88;10342696;28;20537;-72
2021/10/23 08:04:27;;;;;;;0.10;0.10;;;;;;;9.12;88.46;102493.66;10334919;28;20564;-72
2021/10/23 08:09:31;;;;;;;0.10;0.10;;;;;;;8.67;89.72;102498.56;10347540;28;20029;-72
2021/10/23 08:14:33;;;;;;;0.10;0.10;;;;;;;8.49;90.14;102500.69;10366616;28;20036;-72
2021/10/23 08:19:34;;;;;;;0.00;0.00;;;;;;;8.49;90.50;102513.94;10354931;28;20049;-72
2021/10/23 08:24:34;;;;;;;0.00;0.00;;;;;;;8.55;90.16;102535.66;10348786;28;20243;-72
2021/10/23 08:29:35;;;;;;;0.10;0.10;;;;;;;8.64;90.06;102530.66;10353659;28;20037;-72
2021/10/23 08:34:35;;;;;;;0.00;0.00;;;;;;;9.02;91.56;102541.31;10370903;28;20276;-72
2021/10/23 08:39:35;;;;;;;0.00;0.00;;;;;;;10.03;87.14;102543.81;10351551;28;20117;-72
2021/10/23 08:44:38;;;;;;;0.10;0.10;;;;;;;10.25;85.59;102551.06;10362732;28;20091;-72
2021/10/23 08:49:39;;;;;;;0.10;0.10;;;;;;;10.23;85.21;102556.47;10371916;28;20022;-72
2021/10/23 08:54:41;;;;;;;0.00;0.00;;;;;;;10.50;85.91;102566.94;10360047;28;20037;-72
2021/10/23 08:59:42;;;;;;;0.10;0.10;;;;;;;10.41;85.25;102560.47;10372606;28;20029;-72
2021/10/23 09:04:42;;;;;;;0.10;0.10;;;;;;;10.12;86.01;102562.63;10360533;28;20030;-71
2021/10/23 09:09:54;;;;;;;0.10;0.10;;;;;;;9.94;86.03;102571.94;10372290;28;20052;-71
2021/10/23 09:15:11;;;;;;;0.10;0.10;;;;;;;10.29;87.42;102580.03;10352696;28;20013;-72
2021/10/23 09:20:15;;;;;;;0.00;0.00;;;;;;;10.63;86.45;102591.66;10354310;28;20116;-71
2021/10/23 09:25:30;;;;;;;0.10;0.10;;;;;;;11.07;83.47;102595.41;10355126;28;20473;-72
2021/10/23 09:30:33;;;;;;;0.10;0.10;;;;;;;11.55;82.17;102600.53;10366085;28;20281;-71
2021/10/23 09:35:43;;;;;;;0.00;0.00;;;;;;;11.65;80.99;102600.63;10339763;28;20065;-71
2021/10/23 09:40:44;;;;;;;0.10;0.10;;;;;;;11.61;81.52;102599.19;10343276;28;20029;-71
2021/10/23 09:45:57;;;;;;;0.10;0.10;;;;;;;11.35;81.89;102611.09;10371329;28;20022;-72
2021/10/23 09:51:26;;;;;;;0.10;0.10;;;;;;;10.96;82.71;102607.84;10354202;28;20381;-73
2021/10/23 09:56:30;;;;;;;0.10;0.10;;;;;;;10.79;83.65;102618.03;10356752;28;20366;-71
2021/10/23 10:01:33;;;;;;;0.00;0.00;;;;;;;11.00;83.87;102615.53;10359405;28;20026;-72
2021/10/23 10:06:34;;;;;;;0.10;0.10;;;;;;;11.14;81.87;102622.47;10336457;28;20021;-70
2021/10/23 10:11:38;;;;;;;0.10;0.10;;;;;;;11.12;83.21;102624.38;10343715;28;20489;-71
2021/10/23 10:16:44;;;;;;;0.00;0.00;;;;;;;11.28;82.81;102629.38;10337638;28;20018;-71
2021/10/23 10:21:47;;;;;;;0.10;0.10;;;;;;;11.56;82.82;102641.41;10329320;28;20022;-71
2021/10/23 10:27:27;;;;;;;0.00;0.00;;;;;;;11.67;81.71;102646.75;10328015;28;20027;-71
2021/10/23 10:32:35;;;;;;;0.10;0.10;;;;;;;11.50;81.95;102661.41;10348964;28;20104;-70
2021/10/23 10:39:06;;;;;;;0.10;0.10;;;;;;;11.26;81.84;102663.34;10329307;28;20029;-70
2021/10/23 10:43:33;;;;;;;0.10;0.10;;;;;;;11.07;83.04;102674.56;10366103;28;20068;-71
2021/10/23 10:48:37;;;;;;;0.00;0.00;;;;;;;10.98;83.07;102675.25;10353348;28;20057;-69
2021/10/23 10:53:50;;;;;;;0.00;0.00;;;;;;;10.98;82.77;102672.59;10368588;28;20026;-70
2021/10/23 10:58:55;;;;;;;0.00;0.00;;;;;;;11.22;83.15;102667.19;10368495;28;20018;-70
2021/10/23 11:03:58;;;;;;;0.10;0.10;;;;;;;11.42;81.63;102662.97;10352966;28;20026;-75
2021/10/23 11:09:07;;;;;;;0.10;0.10;;;;;;;11.57;81.69;102661.75;10339861;28;20022;-69
2021/10/23 11:14:09;;;;;;;0.10;0.10;;;;;;;11.60;80.90;102671.34;10331897;28;20527;-67
2021/10/23 11:19:16;;;;;;;0.10;0.10;;;;;;;11.59;81.47;102675.00;10347656;28;20033;-68
2021/10/23 11:24:16;;;;;;;0.10;0.10;;;;;;;11.56;81.82;102668.09;10338440;28;20507;-67
2021/10/23 11:29:25;;;;;;;0.10;0.10;;;;;;;11.49;80.97;102674.84;10326646;28;20037;-68
2021/10/23 11:34:34;;;;;;;0.03;0.03;;;;;;;11.48;82.01;102681.19;10328386;28;20362;-68
2021/10/23 11:39:37;;;;;;;0.10;0.10;;;;;;;11.56;82.87;102684.09;10357718;28;20018;-68
2021/10/23 11:44:37;;;;;;;0.10;0.10;;;;;;;11.60;82.71;102693.56;10328148;28;20492;-68
2021/10/23 11:49:38;;;;;;;0.10;0.10;;;;;;;11.41;81.95;102699.50;10327338;28;20023;-67
2021/10/23 11:54:48;;;;;;;0.10;0.10;;;;;;;11.18;83.54;102687.91;10327855;28;20022;-68
2021/10/23 11:59:48;;;;;;;0.00;0.00;;;;;;;11.00;84.59;102700.00;10327611;28;20030;-68
2021/10/23 12:04:48;;;;;;;0.10;0.10;;;;;;;10.79;85.57;102703.31;10327728;28;20026;-68
2021/10/23 12:10:02;;;;;;;0.00;0.00;;;;;;;10.67;86.20;102708.69;10332359;28;20401;-68
2021/10/23 12:15:16;;;;;;;0.10;0.10;;;;;;;10.83;85.78;102707.44;10335648;28;20409;-67
2021/10/23 12:20:17;;;;;;;0.10;0.10;;;;;;;11.12;83.60;102712.41;10334003;28;20132;-68
2021/10/23 12:25:17;;;;;;;0.10;0.10;;;;;;;11.46;83.15;102713.34;10335329;28;20049;-68
2021/10/23 12:30:17;;;;;;;0.10;0.10;;;;;;;11.66;82.10;102717.09;10334778;28;20128;-68
2021/10/23 12:35:30;;;;;;;0.10;0.10;;;;;;;11.57;81.90;102709.81;10333457;28;20026;-68
2021/10/23 12:40:32;;;;;;;0.10;0.10;;;;;;;11.41;80.69;102715.50;10333247;28;20026;-67
2021/10/23 12:45:39;;;;;;;0.10;0.10;;;;;;;11.35;82.16;102723.13;10331749;28;20022;-68
2021/10/23 12:50:41;;;;;;;0.00;0.00;;;;;;;11.29;82.48;102724.44;10333703;28;20030;-68
2021/10/23 12:55:42;;;;;;;0.10;0.10;;;;;;;11.27;81.02;102727.22;10333835;28;20045;-67
2021/10/23 13:00:42;;;;;;;0.08;0.08;;;;;;;11.26;81.92;102724.69;10333354;28;20028;-67
2021/10/23 13:05:42;;;;;;;0.10;0.10;;;;;;;11.28;82.56;102736.06;10351759;28;20026;-67
2021/10/23 13:10:43;;;;;;;0.10;0.10;;;;;;;11.31;80.71;102742.03;10373696;28;20022;-67
2021/10/23 13:15:44;;;;;;;0.10;0.10;;;;;;;11.28;82.82;102739.59;10342096;28;20030;-68
2021/10/23 13:20:44;;;;;;;0.00;0.00;;;;;;;11.28;83.11;102726.25;10332162;28;20088;-67
2021/10/23 13:25:44;;;;;;;0.10;0.10;;;;;;;11.23;82.90;102744.44;10332736;28;20034;-68
2021/10/23 13:30:45;;;;;;;0.10;0.10;;;;;;;11.09;82.26;102731.28;10377844;22;20188;-72
2021/10/23 13:35:45;;;;;;;0.10;0.10;;;;;;;10.95;81.26;102742.16;10330739;28;20025;-72
2021/10/23 13:40:46;;;;;;;0.10;0.10;;;;;;;10.81;83.09;102749.34;10330347;28;20272;-72
2021/10/23 13:45:48;;;;;;;0.10;0.10;;;;;;;10.70;83.92;102770.59;10328985;28;20049;-71
2021/10/23 13:50:48;;;;;;;0.10;0.10;;;;;;;10.55;85.27;102774.41;10328437;28;20454;-72
2021/10/23 13:55:48;;;;;;;0.10;0.10;;;;;;;10.35;87.72;102782.00;10330352;28;20019;-71
2021/10/23 14:00:49;;;;;;;0.10;0.10;;;;;;;10.20;88.96;102785.75;10345694;28;20026;-71
2021/10/23 14:05:49;;;;;;;0.07;0.07;;;;;;;10.13;90.83;102779.16;10345972;28;20312;-72
2021/10/23 14:10:50;;;;;;;0.10;0.10;;;;;;;10.22;91.48;102788.31;10351101;28;20433;-72
2021/10/23 14:15:51;;;;;;;0.00;0.00;;;;;;;10.34;90.97;102775.00;10337830;28;20385;-71
2021/10/23 14:20:51;;;;;;;0.10;0.10;;;;;;;10.42;89.43;102779.78;10351898;28;20032;-71
2021/10/23 14:25:53;;;;;;;0.10;0.10;;;;;;;10.45;87.95;102790.22;10328906;28;20277;-71
2021/10/23 14:30:53;;;;;;;0.10;0.10;;;;;;;10.45;86.73;102786.69;10352277;28;20026;-71
2021/10/23 14:35:54;;;;;;;0.05;0.05;;;;;;;10.47;86.58;102792.75;10366261;28;20026;-71
2021/10/23 14:40:54;;;;;;;0.00;0.00;;;;;;;10.50;87.34;102779.19;10360944;28;20060;-71
2021/10/23 14:45:55;;;;;;;0.10;0.10;;;;;;;10.51;86.66;102786.25;10343940;28;20281;-71
2021/10/23 14:50:55;;;;;;;0.00;0.00;;;;;;;10.46;85.92;102789.25;10328416;28;20265;-71
2021/10/23 14:55:56;;;;;;;0.10;0.10;;;;;;;10.39;85.32;102791.50;10326595;28;20060;-71
2021/10/23 15:00:56;;;;;;;0.08;0.08;;;;;;;10.30;85.06;102789.50;10355329;28;20356;-71
2021/10/23 15:05:56;;;;;;;0.10;0.10;;;;;;;10.17;84.57;102789.47;10358041;28;20481;-71
2021/10/23 15:10:57;;;;;;;0.10;0.10;;;;;;;10.11;83.96;102794.38;10346253;28;20274;-71
2021/10/23 15:15:57;;;;;;;0.10;0.10;;;;;;;10.05;85.30;102787.69;10341329;28;20021;-71
2021/10/23 15:20:58;;;;;;;0.10;0.10;;;;;;;10.03;84.84;102804.72;10354588;28;20030;-71
2021/10/23 15:25:58;;;;;;;0.10;0.10;;;;;;;9.98;85.29;102797.91;10362375;28;20026;-69
2021/10/23 15:31:00;;;;;;;0.10;0.10;;;;;;;9.97;86.37;102806.00;10338687;28;20021;-71
2021/10/23 15:36:07;;;;;;;0.00;0.00;;;;;;;9.94;85.93;102801.72;10358539;28;20014;-71
2021/10/23 15:46:20;;;;;;;0.10;0.10;;;;;;;9.85;87.55;102813.03;10343245;28;20030;-71
2021/10/23 15:51:21;;;;;;;0.10;0.10;;;;;;;9.82;87.00;102820.38;10375249;28;20018;-71
2021/10/23 15:56:21;;;;;;;0.05;0.05;;;;;;;9.72;88.86;102818.34;10371102;28;20022;-70
2021/10/23 16:01:21;;;;;;;0.00;0.00;;;;;;;9.63;87.27;102812.78;10360851;28;20392;-71
2021/10/23 16:06:21;;;;;;;0.10;0.10;;;;;;;9.48;87.88;102820.00;10350803;28;20029;-71
2021/10/23 16:11:22;;;;;;;0.10;0.10;;;;;;;9.23;89.63;102819.00;10359778;28;20029;-70
2021/10/23 16:16:22;;;;;;;0.10;0.10;;;;;;;8.94;90.09;102831.53;10349447;28;20017;-70
2021/10/23 16:21:22;;;;;;;0.10;0.10;;;;;;;8.69;91.22;102831.41;10360727;28;20473;-70
2021/10/23 16:26:23;;;;;;;0.00;0.00;;;;;;;8.45;92.74;102844.44;10357975;28;20033;-72
2021/10/23 16:31:24;;;;;;;0.10;0.10;;;;;;;8.19;93.73;102848.66;10336079;28;20273;-71
2021/10/23 16:36:25;;;;;;;0.08;0.08;;;;;;;7.94;93.71;102853.69;10339969;28;20269;-71
2021/10/23 16:41:25;;;;;;;0.10;0.10;;;;;;;7.70;94.72;102842.72;10365248;28;20101;-71
2021/10/23 16:46:26;;;;;;;0.00;0.00;;;;;;;7.50;95.54;102858.94;10373125;28;20022;-71
2021/10/23 16:51:26;;;;;;;0.10;0.10;;;;;;;7.33;95.69;102873.19;10373334;28;20037;-71
2021/10/23 16:56:26;;;;;;;0.00;0.00;;;;;;;7.15;96.75;102866.28;10371567;28;20014;-71
2021/10/23 17:01:27;;;;;;;0.10;0.10;;;;;;;7.05;97.90;102878.34;10344906;28;20022;-71
2021/10/23 17:06:27;;;;;;;0.10;0.10;;;;;;;6.90;97.66;102872.97;10371608;28;20021;-71
2021/10/23 17:11:28;;;;;;;0.10;0.10;;;;;;;6.75;97.84;102879.97;10362404;28;20496;-71
2021/10/23 17:16:29;;;;;;;0.10;0.10;;;;;;;6.59;97.67;102887.03;10371537;28;20428;-71
2021/10/23 17:21:29;;;;;;;0.10;0.10;;;;;;;6.44;98.31;102885.19;10370744;28;20018;-71
2021/10/23 17:26:33;;;;;;;0.00;0.00;;;;;;;6.30;98.23;102892.06;10371081;28;20021;-71
2021/10/23 17:31:34;;;;;;;0.00;0.00;;;;;;;6.16;98.86;102897.22;10367154;28;20050;-71
2021/10/23 17:36:35;;;;;;;0.00;0.00;;;;;;;6.09;99.15;102895.84;10359796;28;20017;-71
2021/10/23 17:41:36;;;;;;;0.00;0.00;;;;;;;5.93;98.62;102916.03;10367645;28;20496;-71
2021/10/23 17:46:36;;;;;;;0.08;0.08;;;;;;;5.81;99.74;102917.53;10372861;28;20057;-71
2021/10/23 17:51:37;;;;;;;0.00;0.00;;;;;;;5.70;99.53;102918.03;10372149;28;20108;-71
2021/10/23 17:56:37;;;;;;;0.00;0.00;;;;;;;5.61;100.00;102923.78;10366058;28;20091;-71
2021/10/23 18:01:38;;;;;;;0.00;0.00;;;;;;;5.58;100.00;102916.00;10349233;28;20072;-70
2021/10/23 18:06:39;;;;;;;0.00;0.00;;;;;;;5.51;100.00;102925.19;10346584;28;20381;-71
2021/10/23 18:11:40;;;;;;;0.00;0.00;;;;;;;5.53;100.00;102931.28;10341561;28;20018;-70
2021/10/23 18:17:23;;;;;;;0.00;0.00;;;;;;;5.51;100.00;102931.31;10355782;28;20061;-70
2021/10/23 18:22:12;;;;;;;0.08;0.08;;;;;;;5.52;100.00;102932.19;10353708;28;20034;-70
2021/10/23 18:27:12;;;;;;;0.00;0.00;;;;;;;5.46;100.00;102938.63;10336178;28;20026;-70
2021/10/23 18:32:12;;;;;;;0.00;0.00;;;;;;;5.35;100.00;102939.16;10360323;28;20397;-70
2021/10/23 18:37:13;;;;;;;0.00;0.00;;;;;;;5.25;100.00;102945.78;10357469;28;20040;-70
2021/10/23 18:42:14;;;;;;;0.00;0.00;;;;;;;5.06;100.00;102951.09;10360605;28;20269;-70
2021/10/23 18:47:16;;;;;;;0.00;0.00;;;;;;;4.93;100.00;102950.78;10361839;28;20030;-70
2021/10/23 18:52:17;;;;;;;0.00;0.00;;;;;;;4.84;100.00;102953.84;10358433;28;20034;-70
2021/10/23 18:57:18;;;;;;;0.00;0.00;;;;;;;4.76;100.00;102948.06;10367171;28;20018;-70
2021/10/23 19:02:22;;;;;;;0.00;0.00;;;;;;;4.63;100.00;102946.91;10356740;28;20026;-70
2021/10/23 19:07:23;;;;;;;0.00;0.00;;;;;;;4.46;100.00;102945.03;10360115;28;20029;-70
2021/10/23 19:12:23;;;;;;;0.00;0.00;;;;;;;4.32;100.00;102943.81;10341045;28;20507;-70
2021/10/23 19:17:24;;;;;;;0.00;0.00;;;;;;;4.17;100.00;102946.28;10336828;28;20022;-70
2021/10/23 19:22:24;;;;;;;0.00;0.00;;;;;;;4.06;100.00;102947.59;10359823;28;20268;-70
2021/10/23 19:27:24;;;;;;;0.00;0.00;;;;;;;3.97;100.00;102947.97;10367241;28;20324;-69
2021/10/23 19:32:25;;;;;;;0.00;0.00;;;;;;;3.93;100.00;102959.59;10342267;28;20030;-70
2021/10/23 19:37:25;;;;;;;0.00;0.00;;;;;;;3.90;100.00;102958.84;10349232;28;20276;-70
2021/10/23 19:42:25;;;;;;;0.00;0.00;;;;;;;3.99;100.00;102963.75;10342903;28;20470;-70
2021/10/23 19:47:26;;;;;;;0.00;0.00;;;;;;;3.97;100.00;102958.53;10326643;28;20249;-70
2021/10/23 19:52:26;;;;;;;0.00;0.00;;;;;;;4.07;100.00;102962.50;10360373;22;20056;-66
2021/10/23 19:57:27;;;;;;;0.00;0.00;;;;;;;4.20;100.00;102964.63;10328267;28;20327;-66
2021/10/23 20:02:27;;;;;;;0.00;0.00;;;;;;;4.19;100.00;102969.03;10324175;28;20096;-66
2021/10/23 20:07:27;;;;;;;0.00;0.00;;;;;;;4.17;100.00;102976.16;10324484;28;20360;-65
2021/10/23 20:12:28;;;;;;;0.00;0.00;;;;;;;4.20;100.00;102977.81;10324979;28;20369;-65
2021/10/23 20:17:28;;;;;;;0.00;0.00;;;;;;;4.15;100.00;102979.78;10324654;28;20019;-66
2021/10/23 20:22:28;;;;;;;0.00;0.00;;;;;;;4.16;100.00;102984.13;10319670;28;20282;-68
2021/10/23 20:27:29;;;;;;;0.00;0.00;;;;;;;4.09;100.00;102979.09;10325244;28;20023;-66
2021/10/23 20:32:29;;;;;;;0.00;0.00;;;;;;;4.08;100.00;102969.50;10332144;28;20026;-65
2021/10/23 20:37:30;;;;;;;0.00;0.00;;;;;;;4.09;100.00;102979.09;10330324;28;20050;-68
2021/10/23 20:42:31;;;;;;;0.00;0.00;;;;;;;4.06;100.00;102973.97;10330437;28;20045;-67
2021/10/23 20:47:31;;;;;;;0.00;0.00;;;;;;;4.00;100.00;102968.94;10339028;28;20058;-66
2021/10/23 20:52:32;;;;;;;0.00;0.00;;;;;;;3.92;100.00;102968.41;10366378;28;20065;-66
2021/10/23 20:57:32;;;;;;;0.00;0.00;;;;;;;3.89;100.00;102978.22;10347306;28;20504;-67
2021/10/23 21:02:33;;;;;;;0.00;0.00;;;;;;;3.86;100.00;102973.94;10348845;28;20072;-66
2021/10/23 21:07:34;;;;;;;0.00;0.00;;;;;;;3.81;100.00;102982.03;10348498;28;20025;-66
2021/10/23 21:12:34;;;;;;;0.00;0.00;;;;;;;3.72;100.00;102979.75;10360417;28;20118;-66
2021/10/23 21:17:35;;;;;;;0.00;0.00;;;;;;;3.58;100.00;102988.25;10341730;28;20382;-67
2021/10/23 21:22:35;;;;;;;0.00;0.00;;;;;;;3.46;100.00;102987.84;10356573;28;20034;-66
2021/10/23 21:27:36;;;;;;;0.00;0.00;;;;;;;3.38;100.00;102985.53;10349048;28;20364;-67
2021/10/23 21:32:36;;;;;;;0.00;0.00;;;;;;;3.28;100.00;102978.88;10348661;28;20284;-67
2021/10/23 21:37:36;;;;;;;0.00;0.00;;;;;;;3.28;100.00;102994.69;10331720;28;20033;-67
2021/10/23 21:42:37;;;;;;;0.00;0.00;;;;;;;3.30;100.00;102995.50;10356192;28;20037;-67
2021/10/23 21:47:38;;;;;;;0.00;0.00;;;;;;;3.43;100.00;103001.13;10367748;28;20397;-67
2021/10/23 21:52:38;;;;;;;0.00;0.00;;;;;;;3.74;100.00;103006.06;10353211;28;20168;-67
2021/10/23 21:57:38;;;;;;;0.00;0.00;;;;;;;3.95;100.00;103004.34;10345024;28;20262;-68
2021/10/23 22:02:38;;;;;;;0.00;0.00;;;;;;;3.99;100.00;102990.97;10331209;28;20404;-67
2021/10/23 22:07:39;;;;;;;0.00;0.00;;;;;;;3.97;100.00;102984.91;10365649;28;20026;-67
2021/10/23 22:12:39;;;;;;;0.00;0.00;;;;;;;3.91;100.00;102992.22;10367721;28;20042;-67
2021/10/23 22:17:40;;;;;;;0.00;0.00;;;;;;;3.89;100.00;102991.41;10364331;28;20017;-68
2021/10/23 22:22:40;;;;;;;0.00;0.00;;;;;;;3.81;100.00;102994.34;10342189;28;20050;-66
2021/10/23 22:27:40;;;;;;;0.00;0.00;;;;;;;3.70;100.00;102994.81;10324769;28;20110;-67
2021/10/23 22:32:41;;;;;;;0.00;0.00;;;;;;;3.62;100.00;102994.25;10331421;28;20352;-66
2021/10/23 22:37:41;;;;;;;0.00;0.00;;;;;;;3.58;100.00;102993.50;10347859;28;20446;-67
2021/10/23 22:42:42;;;;;;;0.00;0.00;;;;;;;3.60;100.00;103002.19;10327134;28;20037;-67
2021/10/23 22:47:42;;;;;;;0.00;0.00;;;;;;;3.71;100.00;102987.75;10325884;28;20026;-67
2021/10/23 22:52:44;;;;;;;0.00;0.00;;;;;;;3.68;100.00;102993.13;10341225;28;20018;-67
2021/10/23 22:57:46;;;;;;;0.00;0.00;;;;;;;3.62;100.00;102994.25;10361915;28;20402;-66
2021/10/23 23:02:47;;;;;;;0.00;0.00;;;;;;;3.56;100.00;102997.13;10346093;28;20021;-66
2021/10/23 23:07:48;;;;;;;0.00;0.00;;;;;;;3.45;100.00;102997.53;10364835;28;20072;-67
2021/10/23 23:12:48;;;;;;;0.00;0.00;;;;;;;3.46;100.00;102999.28;10365380;28;20104;-67
2021/10/23 23:17:49;;;;;;;0.00;0.00;;;;;;;3.52;100.00;102983.22;10364691;28;20013;-67